sensor_id;sensor_type;location;lat;lon;timestamp;pressure;altitude;pressure_sealevel;temperature;humidity
62374;BME280;48409;49.030;1.820;2023-01-20T00:02:13;100547.84;;;3.98;65.65
62374;BME280;48409;49.030;1.820;2023-01-20T00:04:40;100553.91;;;3.99;65.71
62374;BME280;48409;49.030;1.820;2023-01-20T00:07:06;100553.91;;;3.99;65.75
62374;BME280;48409;49.030;1.820;2023-01-20T00:09:31;100557.44;;;3.98;65.74
62374;BME280;48409;49.030;1.820;2023-01-20T00:11:57;100556.53;;;3.99;65.79
62374;BME280;48409;49.030;1.820;2023-01-20T00:14:22;100560.91;;;3.97;65.59
62374;BME280;48409;49.030;1.820;2023-01-20T00:16:49;100552.22;;;3.98;65.81
62374;BME280;48409;49.030;1.820;2023-01-20T00:19:17;100555.69;;;3.97;65.72
62374;BME280;48409;49.030;1.820;2023-01-20T00:21:43;100557.44;;;3.98;65.70
62374;BME280;48409;49.030;1.820;2023-01-20T00:24:08;100565.25;;;3.98;65.77
62374;BME280;48409;49.030;1.820;2023-01-20T00:26:34;100562.63;;;3.98;65.76
62374;BME280;48409;49.030;1.820;2023-01-20T00:28:59;100564.34;;;3.99;65.70
62374;BME280;48409;49.030;1.820;2023-01-20T00:31:28;100568.72;;;3.97;65.68
62374;BME280;48409;49.030;1.820;2023-01-20T00:33:56;100574.81;;;3.97;65.66
62374;BME280;48409;49.030;1.820;2023-01-20T00:36:23;100583.50;;;3.98;65.66
62374;BME280;48409;49.030;1.820;2023-01-20T00:38:49;100586.97;;;3.97;65.68
62374;BME280;48409;49.030;1.820;2023-01-20T00:41:15;100590.47;;;3.96;65.62
62374;BME280;48409;49.030;1.820;2023-01-20T00:43:41;100595.69;;;3.96;65.66
62374;BME280;48409;49.030;1.820;2023-01-20T00:46:07;100602.66;;;3.95;65.90
62374;BME280;48409;49.030;1.820;2023-01-20T00:48:34;100597.47;;;3.94;65.78
62374;BME280;48409;49.030;1.820;2023-01-20T00:51:00;100594.88;;;3.94;65.87
62374;BME280;48409;49.030;1.820;2023-01-20T00:53:25;100598.31;;;3.94;65.70
62374;BME280;48409;49.030;1.820;2023-01-20T00:55:51;100602.69;;;3.94;65.77
62374;BME280;48409;49.030;1.820;2023-01-20T00:58:16;100600.06;;;3.94;65.86
62374;BME280;48409;49.030;1.820;2023-01-20T01:00:42;100599.22;;;3.91;65.65
62374;BME280;48409;49.030;1.820;2023-01-20T01:03:08;100606.16;;;3.92;65.70
62374;BME280;48409;49.030;1.820;2023-01-20T01:05:34;100610.53;;;3.92;65.69
62374;BME280;48409;49.030;1.820;2023-01-20T01:08:00;100607.91;;;3.92;65.85
62374;BME280;48409;49.030;1.820;2023-01-20T01:10:26;100610.56;;;3.89;65.89
62374;BME280;48409;49.030;1.820;2023-01-20T01:12:51;100612.28;;;3.90;65.84
62374;BME280;48409;49.030;1.820;2023-01-20T01:15:17;100611.44;;;3.89;65.61
62374;BME280;48409;49.030;1.820;2023-01-20T01:17:42;100612.34;;;3.88;65.63
62374;BME280;48409;49.030;1.820;2023-01-20T01:20:12;100613.22;;;3.87;65.77
62374;BME280;48409;49.030;1.820;2023-01-20T01:22:38;100627.16;;;3.85;65.64
62374;BME280;48409;49.030;1.820;2023-01-20T01:25:04;100629.75;;;3.85;65.77
62374;BME280;48409;49.030;1.820;2023-01-20T01:27:29;100633.25;;;3.84;65.52
62374;BME280;48409;49.030;1.820;2023-01-20T01:29:55;100645.47;;;3.82;65.56
62374;BME280;48409;49.030;1.820;2023-01-20T01:32:21;100634.22;;;3.79;65.54
62374;BME280;48409;49.030;1.820;2023-01-20T01:34:47;100641.16;;;3.79;65.68
62374;BME280;48409;49.030;1.820;2023-01-20T01:37:12;100642.06;;;3.76;65.68
62374;BME280;48409;49.030;1.820;2023-01-20T01:39:38;100649.91;;;3.75;65.66
62374;BME280;48409;49.030;1.820;2023-01-20T01:42:10;100652.56;;;3.73;65.63
62374;BME280;48409;49.030;1.820;2023-01-20T01:44:38;100659.56;;;3.70;65.48
62374;BME280;48409;49.030;1.820;2023-01-20T01:47:23;100663.06;;;3.69;65.67
62374;BME280;48409;49.030;1.820;2023-01-20T01:49:48;100670.06;;;3.67;65.62
62374;BME280;48409;49.030;1.820;2023-01-20T01:52:14;100669.22;;;3.64;65.64
62374;BME280;48409;49.030;1.820;2023-01-20T01:54:40;100672.72;;;3.63;65.67
62374;BME280;48409;49.030;1.820;2023-01-20T01:57:09;100684.03;;;3.62;65.54
62374;BME280;48409;49.030;1.820;2023-01-20T01:59:37;100688.38;;;3.60;65.66
62374;BME280;48409;49.030;1.820;2023-01-20T02:02:03;100683.19;;;3.60;65.50
62374;BME280;48409;49.030;1.820;2023-01-20T02:04:28;100684.97;;;3.58;65.61
62374;BME280;48409;49.030;1.820;2023-01-20T02:07:09;100699.69;;;3.59;65.49
62374;BME280;48409;49.030;1.820;2023-01-20T02:09:37;100693.69;;;3.57;65.57
62374;BME280;48409;49.030;1.820;2023-01-20T02:12:06;100699.75;;;3.56;65.61
62374;BME280;48409;49.030;1.820;2023-01-20T02:14:36;100693.69;;;3.57;65.60
62374;BME280;48409;49.030;1.820;2023-01-20T02:31:30;100711.97;;;3.52;65.62
62374;BME280;48409;49.030;1.820;2023-01-20T02:39:09;100708.50;;;3.52;65.56
62374;BME280;48409;49.030;1.820;2023-01-20T02:41:39;100718.06;;;3.53;65.79
62374;BME280;48409;49.030;1.820;2023-01-20T02:44:15;100717.19;;;3.52;65.69
62374;BME280;48409;49.030;1.820;2023-01-20T02:47:05;100720.66;;;3.53;65.90
62374;BME280;48409;49.030;1.820;2023-01-20T02:49:35;100725.88;;;3.53;65.53
62374;BME280;48409;49.030;1.820;2023-01-20T02:52:12;100718.91;;;3.52;65.84
62374;BME280;48409;49.030;1.820;2023-01-20T02:54:40;100718.06;;;3.53;65.72
62374;BME280;48409;49.030;1.820;2023-01-20T02:57:11;100721.50;;;3.52;65.66
62374;BME280;48409;49.030;1.820;2023-01-20T02:59:43;100725.88;;;3.53;65.88
62374;BME280;48409;49.030;1.820;2023-01-20T03:02:17;100724.97;;;3.54;65.84
62374;BME280;48409;49.030;1.820;2023-01-20T03:04:51;100721.47;;;3.55;65.69
62374;BME280;48409;49.030;1.820;2023-01-20T03:07:21;100732.78;;;3.54;65.68
62374;BME280;48409;49.030;1.820;2023-01-20T03:09:50;100734.53;;;3.53;65.70
62374;BME280;48409;49.030;1.820;2023-01-20T03:12:22;100735.38;;;3.54;65.72
62374;BME280;48409;49.030;1.820;2023-01-20T03:14:49;100747.53;;;3.53;65.52
62374;BME280;48409;49.030;1.820;2023-01-20T03:17:17;100753.63;;;3.54;65.59
62374;BME280;48409;49.030;1.820;2023-01-20T03:19:42;100751.03;;;3.54;65.66
62374;BME280;48409;49.030;1.820;2023-01-20T03:22:08;100747.56;;;3.52;65.70
62374;BME280;48409;49.030;1.820;2023-01-20T03:24:35;100751.94;;;3.51;65.79
62374;BME280;48409;49.030;1.820;2023-01-20T03:27:03;100757.16;;;3.50;65.67
62374;BME280;48409;49.030;1.820;2023-01-20T03:29:28;100752.84;;;3.49;65.76
62374;BME280;48409;49.030;1.820;2023-01-20T03:31:59;100752.84;;;3.49;65.72
62374;BME280;48409;49.030;1.820;2023-01-20T03:34:28;100760.66;;;3.49;65.76
62374;BME280;48409;49.030;1.820;2023-01-20T03:36:56;100771.94;;;3.48;65.66
62374;BME280;48409;49.030;1.820;2023-01-20T03:39:23;100764.16;;;3.46;65.65
62374;BME280;48409;49.030;1.820;2023-01-20T03:44:32;100776.34;;;3.44;65.56
62374;BME280;48409;49.030;1.820;2023-01-20T03:50:09;100778.06;;;3.44;65.49
62374;BME280;48409;49.030;1.820;2023-01-20T03:52:41;100772.03;;;3.42;65.59
62374;BME280;48409;49.030;1.820;2023-01-20T03:55:13;100771.22;;;3.39;65.67
62374;BME280;48409;49.030;1.820;2023-01-20T03:57:50;100773.81;;;3.39;65.55
62374;BME280;48409;49.030;1.820;2023-01-20T04:00:25;100782.50;;;3.38;65.87
62374;BME280;48409;49.030;1.820;2023-01-20T04:02:53;100780.78;;;3.37;65.68
62374;BME280;48409;49.030;1.820;2023-01-20T04:05:21;100785.97;;;3.37;65.57
62374;BME280;48409;49.030;1.820;2023-01-20T04:07:47;100782.56;;;3.35;65.49
62374;BME280;48409;49.030;1.820;2023-01-20T04:10:19;100791.22;;;3.34;65.67
62374;BME280;48409;49.030;1.820;2023-01-20T04:12:48;100791.22;;;3.34;65.61
62374;BME280;48409;49.030;1.820;2023-01-20T04:15:22;100794.72;;;3.33;65.71
62374;BME280;48409;49.030;1.820;2023-01-20T04:18:23;100793.91;;;3.31;65.65
62374;BME280;48409;49.030;1.820;2023-01-20T04:21:02;100805.16;;;3.30;65.52
62374;BME280;48409;49.030;1.820;2023-01-20T04:57:57;100837.50;;;3.15;65.71
62374;BME280;48409;49.030;1.820;2023-01-20T05:08:13;100839.28;;;3.11;65.49
62374;BME280;48409;49.030;1.820;2023-01-20T05:26:47;100856.78;;;3.00;65.32
62374;BME280;48409;49.030;1.820;2023-01-20T05:29:12;100855.91;;;2.98;65.57
62374;BME280;48409;49.030;1.820;2023-01-20T05:32:01;100857.69;;;2.96;65.32
62374;BME280;48409;49.030;1.820;2023-01-20T05:34:52;100857.69;;;2.94;65.24
62374;BME280;48409;49.030;1.820;2023-01-20T05:38:17;100862.09;;;2.91;65.36
62374;BME280;48409;49.030;1.820;2023-01-20T05:41:13;100869.94;;;2.86;65.47
62374;BME280;48409;49.030;1.820;2023-01-20T05:44:00;100868.25;;;2.82;65.48
62374;BME280;48409;49.030;1.820;2023-01-20T05:46:45;100871.75;;;2.79;65.26
62374;BME280;48409;49.030;1.820;2023-01-20T05:49:26;100868.28;;;2.77;65.34
62374;BME280;48409;49.030;1.820;2023-01-20T05:52:05;100869.19;;;2.74;65.39
62374;BME280;48409;49.030;1.820;2023-01-20T05:54:31;100864.88;;;2.72;65.42
62374;BME280;48409;49.030;1.820;2023-01-20T05:56:56;100864.94;;;2.69;65.30
62374;BME280;48409;49.030;1.820;2023-01-20T05:59:23;100856.25;;;2.67;65.37
62374;BME280;48409;49.030;1.820;2023-01-20T06:01:48;100863.22;;;2.65;65.25
62374;BME280;48409;49.030;1.820;2023-01-20T06:04:14;100865.84;;;2.63;65.57
62374;BME280;48409;49.030;1.820;2023-01-20T06:06:40;100868.44;;;2.61;65.52
62374;BME280;48409;49.030;1.820;2023-01-20T06:09:05;100875.41;;;2.59;65.50
62374;BME280;48409;49.030;1.820;2023-01-20T06:11:31;100875.41;;;2.59;65.26
62374;BME280;48409;49.030;1.820;2023-01-20T06:13:57;100875.44;;;2.56;65.39
62374;BME280;48409;49.030;1.820;2023-01-20T06:16:22;100874.56;;;2.56;65.48
62374;BME280;48409;49.030;1.820;2023-01-20T06:18:48;100878.94;;;2.55;65.49
62374;BME280;48409;49.030;1.820;2023-01-20T06:21:13;100874.59;;;2.54;65.63
62374;BME280;48409;49.030;1.820;2023-01-20T06:23:39;100880.66;;;2.53;65.48
62374;BME280;48409;49.030;1.820;2023-01-20T06:26:13;100880.66;;;2.53;65.48
62374;BME280;48409;49.030;1.820;2023-01-20T06:28:39;100878.06;;;2.53;65.30
62374;BME280;48409;49.030;1.820;2023-01-20T06:31:10;100888.47;;;2.53;65.38
62374;BME280;48409;49.030;1.820;2023-01-20T06:33:37;100891.06;;;2.53;65.42
62374;BME280;48409;49.030;1.820;2023-01-20T06:36:03;100902.34;;;2.55;65.47
62374;BME280;48409;49.030;1.820;2023-01-20T06:38:31;100901.47;;;2.55;65.45
62374;BME280;48409;49.030;1.820;2023-01-20T06:40:58;100907.53;;;2.55;65.53
62374;BME280;48409;49.030;1.820;2023-01-20T06:43:24;100905.78;;;2.57;65.49
62374;BME280;48409;49.030;1.820;2023-01-20T06:45:50;100910.97;;;2.59;65.63
62374;BME280;48409;49.030;1.820;2023-01-20T06:48:18;100921.34;;;2.60;65.63
62374;BME280;48409;49.030;1.820;2023-01-20T06:50:44;100917.88;;;2.61;65.61
62374;BME280;48409;49.030;1.820;2023-01-20T06:53:09;100911.78;;;2.63;65.48
62374;BME280;48409;49.030;1.820;2023-01-20T06:55:35;100915.25;;;2.65;65.47
62374;BME280;48409;49.030;1.820;2023-01-20T06:58:09;100916.09;;;2.67;65.56
62374;BME280;48409;49.030;1.820;2023-01-20T07:00:35;100921.28;;;2.68;65.34
62374;BME280;48409;49.030;1.820;2023-01-20T07:03:01;100914.34;;;2.69;65.67
62374;BME280;48409;49.030;1.820;2023-01-20T07:05:26;100916.91;;;2.72;65.71
62374;BME280;48409;49.030;1.820;2023-01-20T07:07:52;100923.84;;;2.73;65.48
62374;BME280;48409;49.030;1.820;2023-01-20T07:10:23;100919.47;;;2.75;65.70
62374;BME280;48409;49.030;1.820;2023-01-20T07:12:49;100924.66;;;2.77;65.72
62374;BME280;48409;49.030;1.820;2023-01-20T07:15:16;100932.47;;;2.78;65.79
62374;BME280;48409;49.030;1.820;2023-01-20T07:17:41;100925.50;;;2.80;65.70
62374;BME280;48409;49.030;1.820;2023-01-20T07:20:10;100929.84;;;2.80;65.64
62374;BME280;48409;49.030;1.820;2023-01-20T07:22:36;100927.22;;;2.81;65.54
62374;BME280;48409;49.030;1.820;2023-01-20T07:25:02;100933.28;;;2.83;65.72
62374;BME280;48409;49.030;1.820;2023-01-20T07:27:30;100930.66;;;2.85;65.72
62374;BME280;48409;49.030;1.820;2023-01-20T07:29:58;100941.06;;;2.86;65.73
62374;BME280;48409;49.030;1.820;2023-01-20T07:32:29;100948.00;;;2.84;65.65
62374;BME280;48409;49.030;1.820;2023-01-20T07:34:57;100948.88;;;2.85;65.69
62374;BME280;48409;49.030;1.820;2023-01-20T07:37:23;100953.22;;;2.84;65.71
62374;BME280;48409;49.030;1.820;2023-01-20T07:39:49;100954.94;;;2.85;65.56
62374;BME280;48409;49.030;1.820;2023-01-20T07:42:14;100963.59;;;2.87;65.75
62374;BME280;48409;49.030;1.820;2023-01-20T07:44:40;100968.81;;;2.87;65.67
62374;BME280;48409;49.030;1.820;2023-01-20T07:47:05;100968.81;;;2.87;65.65
62374;BME280;48409;49.030;1.820;2023-01-20T07:49:31;100974.84;;;2.90;65.93
62374;BME280;48409;49.030;1.820;2023-01-20T07:51:57;100983.50;;;2.92;65.81
62374;BME280;48409;49.030;1.820;2023-01-20T07:54:24;100984.34;;;2.92;65.94
62374;BME280;48409;49.030;1.820;2023-01-20T07:56:53;100982.63;;;2.93;65.94
62374;BME280;48409;49.030;1.820;2023-01-20T07:59:19;100986.94;;;2.94;65.77
62374;BME280;48409;49.030;1.820;2023-01-20T08:01:44;100993.88;;;2.95;65.90
62374;BME280;48409;49.030;1.820;2023-01-20T08:04:14;100997.34;;;2.97;65.75
62374;BME280;48409;49.030;1.820;2023-01-20T08:06:40;100991.25;;;2.98;65.91
62374;BME280;48409;49.030;1.820;2023-01-20T08:09:05;100986.03;;;2.98;65.85
62374;BME280;48409;49.030;1.820;2023-01-20T08:11:36;100991.22;;;3.01;65.77
62374;BME280;48409;49.030;1.820;2023-01-20T08:14:20;100997.28;;;3.02;65.73
62374;BME280;48409;49.030;1.820;2023-01-20T08:16:45;101003.34;;;3.02;65.81
62374;BME280;48409;49.030;1.820;2023-01-20T08:19:15;101015.50;;;3.03;65.77
62374;BME280;48409;49.030;1.820;2023-01-20T08:21:54;101027.66;;;3.04;65.91
62374;BME280;48409;49.030;1.820;2023-01-20T08:27:33;101031.09;;;3.06;65.76
62374;BME280;48409;49.030;1.820;2023-01-20T08:30:10;101043.22;;;3.07;65.97
62374;BME280;48409;49.030;1.820;2023-01-20T08:32:54;101060.56;;;3.08;65.96
62374;BME280;48409;49.030;1.820;2023-01-20T08:35:30;101052.75;;;3.08;66.02
62374;BME280;48409;49.030;1.820;2023-01-20T08:38:26;101063.16;;;3.10;66.10
62374;BME280;48409;49.030;1.820;2023-01-20T08:41:00;101051.88;;;3.09;65.92
62374;BME280;48409;49.030;1.820;2023-01-20T08:46:24;101044.03;;;3.12;66.03
62374;BME280;48409;49.030;1.820;2023-01-20T08:49:16;101053.59;;;3.13;65.81
62374;BME280;48409;49.030;1.820;2023-01-20T08:52:23;101055.31;;;3.15;65.91
62374;BME280;48409;49.030;1.820;2023-01-20T08:55:21;101064.00;;;3.15;66.01
62374;BME280;48409;49.030;1.820;2023-01-20T08:58:00;101068.31;;;3.15;65.72
62374;BME280;48409;49.030;1.820;2023-01-20T09:00:31;101061.38;;;3.15;65.82
62374;BME280;48409;49.030;1.820;2023-01-20T09:02:59;101059.63;;;3.16;65.77
62374;BME280;48409;49.030;1.820;2023-01-20T09:05:34;101060.50;;;3.16;66.12
62374;BME280;48409;49.030;1.820;2023-01-20T09:08:33;101086.53;;;3.18;65.96
62374;BME280;48409;49.030;1.820;2023-01-20T09:11:23;101088.25;;;3.19;65.95
62374;BME280;48409;49.030;1.820;2023-01-20T09:14:01;101088.25;;;3.19;65.90
62374;BME280;48409;49.030;1.820;2023-01-20T09:16:43;101074.34;;;3.20;66.17
62374;BME280;48409;49.030;1.820;2023-01-20T09:19:15;101076.94;;;3.21;66.04
62374;BME280;48409;49.030;1.820;2023-01-20T09:21:44;101068.25;;;3.22;66.25
62374;BME280;48409;49.030;1.820;2023-01-20T09:24:35;101063.91;;;3.23;66.02
62374;BME280;48409;49.030;1.820;2023-01-20T09:27:18;101066.50;;;3.24;65.89
62374;BME280;48409;49.030;1.820;2023-01-20T09:29:43;101067.34;;;3.25;66.10
62374;BME280;48409;49.030;1.820;2023-01-20T09:32:29;101068.22;;;3.25;66.16
62374;BME280;48409;49.030;1.820;2023-01-20T09:35:08;101062.16;;;3.25;66.13
62374;BME280;48409;49.030;1.820;2023-01-20T09:37:36;101063.88;;;3.26;65.85
62374;BME280;48409;49.030;1.820;2023-01-20T09:41:30;101063.00;;;3.27;65.95
62374;BME280;48409;49.030;1.820;2023-01-20T09:53:53;101063.88;;;3.26;66.25
62374;BME280;48409;49.030;1.820;2023-01-20T09:56:29;101068.22;;;3.25;66.16
62374;BME280;48409;49.030;1.820;2023-01-20T09:59:39;101079.47;;;3.26;65.94
62374;BME280;48409;49.030;1.820;2023-01-20T10:02:21;101069.06;;;3.26;66.12
62374;BME280;48409;49.030;1.820;2023-01-20T10:05:21;101076.03;;;3.27;66.31
62374;BME280;48409;49.030;1.820;2023-01-20T10:11:09;101095.09;;;3.29;65.98
62374;BME280;48409;49.030;1.820;2023-01-20T10:20:24;101074.25;;;3.29;66.11
62374;BME280;48409;49.030;1.820;2023-01-20T10:26:16;101091.59;;;3.30;66.12
62374;BME280;48409;49.030;1.820;2023-01-20T10:29:28;101095.06;;;3.32;66.12
62374;BME280;48409;49.030;1.820;2023-01-20T10:32:10;101088.97;;;3.32;66.00
62374;BME280;48409;49.030;1.820;2023-01-20T10:35:26;101090.75;;;3.31;66.28
62374;BME280;48409;49.030;1.820;2023-01-20T10:38:15;101096.78;;;3.33;66.22
62374;BME280;48409;49.030;1.820;2023-01-20T10:41:12;101098.50;;;3.34;66.10
62374;BME280;48409;49.030;1.820;2023-01-20T10:44:16;101094.19;;;3.35;66.09
62374;BME280;48409;49.030;1.820;2023-01-20T10:47:20;101104.56;;;3.38;66.25
62374;BME280;48409;49.030;1.820;2023-01-20T10:58:41;101110.50;;;3.51;66.40
62374;BME280;48409;49.030;1.820;2023-01-20T11:01:22;101099.19;;;3.55;66.56
62374;BME280;48409;49.030;1.820;2023-01-20T11:04:23;101099.16;;;3.58;66.41
62374;BME280;48409;49.030;1.820;2023-01-20T11:06:58;101097.38;;;3.62;66.37
62374;BME280;48409;49.030;1.820;2023-01-20T11:13:00;101098.16;;;3.72;66.57
62374;BME280;48409;49.030;1.820;2023-01-20T11:15:58;101095.47;;;3.76;66.39
62374;BME280;48409;49.030;1.820;2023-01-20T11:22:00;101096.28;;;3.83;66.35
62374;BME280;48409;49.030;1.820;2023-01-20T11:31:52;101081.41;;;3.91;66.35
62374;BME280;48409;49.030;1.820;2023-01-20T11:34:34;101086.59;;;3.95;66.46
62374;BME280;48409;49.030;1.820;2023-01-20T11:45:03;101093.44;;;4.03;66.47
62374;BME280;48409;49.030;1.820;2023-01-20T11:47:30;101090.81;;;4.05;66.47
62374;BME280;48409;49.030;1.820;2023-01-20T11:52:41;101082.94;;;4.11;66.46
62374;BME280;48409;49.030;1.820;2023-01-20T11:57:38;101068.97;;;4.15;66.40
62374;BME280;48409;49.030;1.820;2023-01-20T12:00:41;101066.28;;;4.18;66.30
62374;BME280;48409;49.030;1.820;2023-01-20T12:06:22;101063.66;;;4.20;66.42
62374;BME280;48409;49.030;1.820;2023-01-20T12:08:59;101064.53;;;4.21;66.07
62374;BME280;48409;49.030;1.820;2023-01-20T12:11:30;101063.66;;;4.22;66.32
62374;BME280;48409;49.030;1.820;2023-01-20T12:16:43;101065.34;;;4.24;66.39
62374;BME280;48409;49.030;1.820;2023-01-20T12:19:15;101065.34;;;4.26;66.34
62374;BME280;48409;49.030;1.820;2023-01-20T12:21:47;101074.00;;;4.28;66.51
62374;BME280;48409;49.030;1.820;2023-01-20T12:24:19;101069.63;;;4.30;66.34
62374;BME280;48409;49.030;1.820;2023-01-20T12:26:45;101073.13;;;4.29;66.22
62374;BME280;48409;49.030;1.820;2023-01-20T12:31:43;101074.88;;;4.27;66.39
62374;BME280;48409;49.030;1.820;2023-01-20T12:34:29;101067.94;;;4.27;66.52
62374;BME280;48409;49.030;1.820;2023-01-20T12:48:42;101073.03;;;4.35;66.35
62374;BME280;48409;49.030;1.820;2023-01-20T12:54:44;101064.28;;;4.39;66.56
62374;BME280;48409;49.030;1.820;2023-01-20T12:57:22;101068.59;;;4.42;66.67
62374;BME280;48409;49.030;1.820;2023-01-20T13:00:09;101065.06;;;4.44;66.62
62374;BME280;48409;49.030;1.820;2023-01-20T13:03:15;101060.72;;;4.47;66.40
62374;BME280;48409;49.030;1.820;2023-01-20T13:11:39;101063.19;;;4.54;66.76
62374;BME280;48409;49.030;1.820;2023-01-20T13:21:53;101068.22;;;4.68;66.79
62374;BME280;48409;49.030;1.820;2023-01-20T13:24:20;101062.09;;;4.69;66.73
62374;BME280;48409;49.030;1.820;2023-01-20T13:26:57;101062.91;;;4.73;66.74
62374;BME280;48409;49.030;1.820;2023-01-20T13:32:02;101066.28;;;4.80;66.49
62374;BME280;48409;49.030;1.820;2023-01-20T13:39:47;101061.81;;;4.88;66.68
62374;BME280;48409;49.030;1.820;2023-01-20T13:47:55;101055.47;;;5.03;67.06
62374;BME280;48409;49.030;1.820;2023-01-20T13:50:34;101053.63;;;5.08;66.86
62374;BME280;48409;49.030;1.820;2023-01-20T13:53:02;101060.53;;;5.13;66.78
62374;BME280;48409;49.030;1.820;2023-01-20T13:58:27;101062.97;;;5.23;67.08
62374;BME280;48409;49.030;1.820;2023-01-20T14:01:04;101055.94;;;5.26;66.77
62374;BME280;48409;49.030;1.820;2023-01-20T14:03:32;101060.28;;;5.28;67.05
62374;BME280;48409;49.030;1.820;2023-01-20T14:08:44;101058.34;;;5.36;67.13
62374;BME280;48409;49.030;1.820;2023-01-20T14:13:52;101058.28;;;5.41;67.08
62374;BME280;48409;49.030;1.820;2023-01-20T14:16:25;101064.28;;;5.46;66.91
62374;BME280;48409;49.030;1.820;2023-01-20T14:18:53;101071.19;;;5.49;66.95
62374;BME280;48409;49.030;1.820;2023-01-20T14:21:22;101062.44;;;5.52;67.05
62374;BME280;48409;49.030;1.820;2023-01-20T14:23:49;101073.72;;;5.55;67.00
62374;BME280;48409;49.030;1.820;2023-01-20T14:26:26;101065.84;;;5.57;66.96
62374;BME280;48409;49.030;1.820;2023-01-20T14:28:54;101061.44;;;5.59;67.05
62374;BME280;48409;49.030;1.820;2023-01-20T14:33:51;101071.75;;;5.65;67.14
62374;BME280;48409;49.030;1.820;2023-01-20T14:36:19;101076.13;;;5.66;67.00
62374;BME280;48409;49.030;1.820;2023-01-20T14:38:49;101072.63;;;5.67;66.79
62374;BME280;48409;49.030;1.820;2023-01-20T14:41:30;101076.94;;;5.68;66.80
62374;BME280;48409;49.030;1.820;2023-01-20T14:43:57;101075.19;;;5.70;66.76
62374;BME280;48409;49.030;1.820;2023-01-20T14:46:24;101079.50;;;5.71;67.09
62374;BME280;48409;49.030;1.820;2023-01-20T14:48:52;101075.13;;;5.72;66.85
62374;BME280;48409;49.030;1.820;2023-01-20T14:51:18;101076.00;;;5.72;66.95
62374;BME280;48409;49.030;1.820;2023-01-20T14:53:44;101072.47;;;5.73;66.84
62374;BME280;48409;49.030;1.820;2023-01-20T14:56:20;101076.88;;;5.73;66.88
62374;BME280;48409;49.030;1.820;2023-01-20T14:58:47;101079.44;;;5.74;66.84
62374;BME280;48409;49.030;1.820;2023-01-20T15:01:20;101082.09;;;5.73;66.61
62374;BME280;48409;49.030;1.820;2023-01-20T15:03:56;101089.88;;;5.74;67.01
62374;BME280;48409;49.030;1.820;2023-01-20T15:06:23;101095.09;;;5.74;66.70
62374;BME280;48409;49.030;1.820;2023-01-20T15:08:49;101093.41;;;5.73;66.81
62374;BME280;48409;49.030;1.820;2023-01-20T15:16:46;101096.84;;;5.75;66.63
62374;BME280;48409;49.030;1.820;2023-01-20T15:24:32;101112.53;;;5.75;66.62
62374;BME280;48409;49.030;1.820;2023-01-20T15:27:15;101109.03;;;5.77;66.72
62374;BME280;48409;49.030;1.820;2023-01-20T15:29:57;101118.59;;;5.78;66.92
62374;BME280;48409;49.030;1.820;2023-01-20T15:32:23;101107.22;;;5.79;66.82
62374;BME280;48409;49.030;1.820;2023-01-20T15:34:49;101121.16;;;5.81;66.58
62374;BME280;48409;49.030;1.820;2023-01-20T15:37:19;101122.91;;;5.79;66.69
62374;BME280;48409;49.030;1.820;2023-01-20T15:39:44;101122.03;;;5.81;66.76
62374;BME280;48409;49.030;1.820;2023-01-20T15:42:10;101122.88;;;5.82;66.91
62374;BME280;48409;49.030;1.820;2023-01-20T15:44:36;101134.19;;;5.84;66.57
62374;BME280;48409;49.030;1.820;2023-01-20T15:47:09;101136.78;;;5.84;66.80
62374;BME280;48409;49.030;1.820;2023-01-20T15:49:41;101135.88;;;5.85;66.73
62374;BME280;48409;49.030;1.820;2023-01-20T15:52:09;101135.91;;;5.83;66.57
62374;BME280;48409;49.030;1.820;2023-01-20T15:54:34;101137.63;;;5.84;66.73
62374;BME280;48409;49.030;1.820;2023-01-20T15:57:00;101130.69;;;5.83;66.71
62374;BME280;48409;49.030;1.820;2023-01-20T15:59:25;101135.03;;;5.83;66.53
62374;BME280;48409;49.030;1.820;2023-01-20T16:01:54;101139.44;;;5.82;66.65
62374;BME280;48409;49.030;1.820;2023-01-20T16:04:23;101148.13;;;5.83;66.77
62374;BME280;48409;49.030;1.820;2023-01-20T16:06:48;101149.00;;;5.82;66.62
62374;BME280;48409;49.030;1.820;2023-01-20T16:09:21;101149.91;;;5.81;66.64
62374;BME280;48409;49.030;1.820;2023-01-20T16:11:48;101153.41;;;5.80;66.65
62374;BME280;48409;49.030;1.820;2023-01-20T16:14:13;101164.75;;;5.79;66.56
62374;BME280;48409;49.030;1.820;2023-01-20T16:16:39;101162.22;;;5.75;66.55
62374;BME280;48409;49.030;1.820;2023-01-20T16:19:04;101163.94;;;5.75;66.60
62374;BME280;48409;49.030;1.820;2023-01-20T16:21:30;101170.97;;;5.73;66.66
62374;BME280;48409;49.030;1.820;2023-01-20T16:23:56;101165.78;;;5.70;66.53
62374;BME280;48409;49.030;1.820;2023-01-20T16:26:24;101167.56;;;5.68;66.60
62374;BME280;48409;49.030;1.820;2023-01-20T16:28:51;101174.56;;;5.66;66.55
62374;BME280;48409;49.030;1.820;2023-01-20T16:31:17;101183.31;;;5.65;66.41
62374;BME280;48409;49.030;1.820;2023-01-20T16:33:43;101186.84;;;5.62;66.36
62374;BME280;48409;49.030;1.820;2023-01-20T16:36:14;101186.00;;;5.60;66.42
62374;BME280;48409;49.030;1.820;2023-01-20T16:38:40;101194.75;;;5.57;66.27
62374;BME280;48409;49.030;1.820;2023-01-20T16:41:25;101198.28;;;5.55;66.23
62374;BME280;48409;49.030;1.820;2023-01-20T16:43:52;101194.88;;;5.49;66.06
62374;BME280;48409;49.030;1.820;2023-01-20T16:46:23;101193.22;;;5.45;66.30
62374;BME280;48409;49.030;1.820;2023-01-20T16:48:50;101199.34;;;5.44;66.28
62374;BME280;48409;49.030;1.820;2023-01-20T16:51:21;101202.00;;;5.41;66.15
62374;BME280;48409;49.030;1.820;2023-01-20T16:53:47;101198.56;;;5.39;66.26
62374;BME280;48409;49.030;1.820;2023-01-20T16:56:19;101198.59;;;5.36;66.35
62374;BME280;48409;49.030;1.820;2023-01-20T16:58:49;101205.56;;;5.34;66.24
62374;BME280;48409;49.030;1.820;2023-01-20T17:01:16;101204.75;;;5.32;66.16
62374;BME280;48409;49.030;1.820;2023-01-20T17:03:46;101204.78;;;5.29;66.03
62374;BME280;48409;49.030;1.820;2023-01-20T17:06:14;101207.44;;;5.26;66.30
62374;BME280;48409;49.030;1.820;2023-01-20T17:08:47;101205.72;;;5.25;66.21